createdAt,value
2017-09-12T00:00:50.275Z,0
2017-09-12T00:01:52.670Z,0
2017-09-12T00:02:55.396Z,0
2017-09-12T00:03:57.792Z,0
2017-09-12T00:05:00.186Z,0
2017-09-12T00:06:02.594Z,0
2017-09-12T00:07:04.989Z,0
2017-09-12T00:08:07.377Z,0
2017-09-12T00:09:09.765Z,0
2017-09-12T00:10:12.163Z,0
2017-09-12T00:11:14.908Z,0
2017-09-12T00:12:17.304Z,0
2017-09-12T00:13:19.695Z,0
2017-09-12T00:14:22.093Z,0
2017-09-12T00:15:24.495Z,0
2017-09-12T00:16:26.894Z,0
2017-09-12T00:17:29.281Z,0
2017-09-12T00:18:31.674Z,0
2017-09-12T00:19:34.067Z,0
2017-09-12T00:20:36.450Z,0
2017-09-12T00:21:38.840Z,0
2017-09-12T00:22:41.571Z,0
2017-09-12T00:23:43.958Z,0
2017-09-12T00:24:46.716Z,0
2017-09-12T00:25:49.441Z,0
2017-09-12T00:26:51.833Z,0
2017-09-12T00:27:54.232Z,0
2017-09-12T00:28:56.621Z,0
2017-09-12T00:29:59.016Z,0
2017-09-12T00:31:01.419Z,0
2017-09-12T00:32:03.800Z,0
2017-09-12T00:33:06.552Z,0
2017-09-12T00:34:09.303Z,0
2017-09-12T00:35:11.688Z,0
2017-09-12T00:36:14.084Z,0
2017-09-12T00:37:16.477Z,0
2017-09-12T00:38:18.875Z,0
2017-09-12T00:39:21.258Z,0
2017-09-12T00:40:23.648Z,0
2017-09-12T00:41:26.052Z,0
2017-09-12T00:42:28.438Z,0
2017-09-12T00:43:30.832Z,0
2017-09-12T00:44:33.217Z,0
2017-09-12T00:45:35.606Z,0
2017-09-12T00:46:38.004Z,0
2017-09-12T00:47:40.398Z,0
2017-09-12T00:48:42.788Z,0
2017-09-12T00:49:45.239Z,0
2017-09-12T00:50:47.963Z,0
2017-09-12T00:51:50.360Z,0
2017-09-12T00:52:52.761Z,0
2017-09-12T00:53:55.153Z,0
2017-09-12T00:54:57.542Z,0
2017-09-12T00:55:59.942Z,0
2017-09-12T00:57:02.330Z,0
2017-09-12T00:58:04.722Z,0
2017-09-12T00:59:07.119Z,0
2017-09-12T01:00:09.510Z,0
2017-09-12T01:01:11.907Z,0
2017-09-12T01:02:14.302Z,0
2017-09-12T01:03:16.687Z,0
2017-09-12T01:04:19.081Z,0
2017-09-12T01:05:21.478Z,0
2017-09-12T01:06:23.871Z,0
2017-09-12T01:07:26.271Z,0
2017-09-12T01:08:28.668Z,0
2017-09-12T01:09:31.055Z,0
2017-09-12T01:10:33.447Z,0
2017-09-12T01:11:35.839Z,0
2017-09-12T01:12:38.243Z,0
2017-09-12T01:13:40.638Z,0
2017-09-12T01:14:43.037Z,0
2017-09-12T01:15:45.427Z,0
2017-09-12T01:16:47.818Z,0
2017-09-12T01:17:50.207Z,0
2017-09-12T01:18:52.603Z,0
2017-09-12T01:19:54.991Z,0
2017-09-12T01:20:57.386Z,0
2017-09-12T01:22:00.114Z,0
2017-09-12T01:23:02.838Z,0
2017-09-12T01:24:05.234Z,0
2017-09-12T01:25:07.625Z,0
2017-09-12T01:26:10.034Z,0
2017-09-12T01:27:12.425Z,0
2017-09-12T01:28:14.813Z,0
2017-09-12T01:29:17.205Z,0
2017-09-12T01:30:19.607Z,0
2017-09-12T01:31:21.987Z,0
2017-09-12T01:32:24.381Z,0
2017-09-12T01:33:26.779Z,0
2017-09-12T01:34:29.175Z,0
2017-09-12T01:35:31.572Z,0
2017-09-12T01:36:33.963Z,0
2017-09-12T01:37:36.362Z,0
2017-09-12T01:38:39.080Z,0
2017-09-12T01:39:41.476Z,0
2017-09-12T01:40:43.870Z,0
2017-09-12T01:41:46.264Z,0
2017-09-12T01:42:48.689Z,0
2017-09-12T01:43:51.060Z,0
2017-09-12T01:44:53.444Z,0
2017-09-12T01:45:55.856Z,0
2017-09-12T01:46:58.250Z,0
2017-09-12T01:48:00.644Z,0
2017-09-12T01:49:03.037Z,0
2017-09-12T01:50:05.427Z,0
2017-09-12T01:51:07.819Z,0
2017-09-12T01:52:10.215Z,0
2017-09-12T01:53:12.603Z,0
2017-09-12T01:54:14.997Z,0
2017-09-12T01:55:17.394Z,0
2017-09-12T01:56:19.781Z,0
2017-09-12T01:57:22.538Z,0
2017-09-12T01:58:24.926Z,0
2017-09-12T01:59:27.316Z,0
2017-09-12T02:00:29.710Z,0
2017-09-12T02:01:32.105Z,0
2017-09-12T02:02:34.497Z,0
2017-09-12T02:03:37.249Z,0
2017-09-12T02:04:39.643Z,0
2017-09-12T02:05:42.034Z,0
2017-09-12T02:06:44.421Z,0
2017-09-12T02:07:46.815Z,0
2017-09-12T02:08:49.890Z,0
2017-09-12T02:09:52.278Z,0
2017-09-12T02:10:54.661Z,0
2017-09-12T02:11:57.065Z,0
2017-09-12T02:12:59.451Z,0
2017-09-12T02:14:02.181Z,0
2017-09-12T02:15:04.580Z,0
2017-09-12T02:16:06.968Z,0
2017-09-12T02:17:09.702Z,0
2017-09-12T02:18:12.102Z,0
2017-09-12T02:19:14.486Z,0
2017-09-12T02:20:16.878Z,0
2017-09-12T02:21:19.278Z,0
2017-09-12T02:22:21.663Z,0
2017-09-12T02:23:24.060Z,0
2017-09-12T02:24:26.446Z,0
2017-09-12T02:25:28.833Z,0
2017-09-12T02:26:31.230Z,0
2017-09-12T02:27:33.640Z,0
2017-09-12T02:28:36.006Z,0
2017-09-12T02:29:38.411Z,0
2017-09-12T02:30:40.797Z,0
2017-09-12T02:31:43.193Z,0
2017-09-12T02:32:45.591Z,0
2017-09-12T02:33:47.983Z,0
2017-09-12T02:34:50.385Z,0
2017-09-12T02:35:52.775Z,0
2017-09-12T02:36:55.168Z,0
2017-09-12T02:37:57.566Z,0
2017-09-12T02:38:59.959Z,0
2017-09-12T02:40:02.354Z,0
2017-09-12T02:41:04.745Z,0
2017-09-12T02:42:07.132Z,0
2017-09-12T02:43:09.534Z,0
2017-09-12T02:44:12.268Z,0
2017-09-12T02:45:14.991Z,0
2017-09-12T02:46:17.387Z,0
2017-09-12T02:47:20.108Z,0
2017-09-12T02:48:22.498Z,0
2017-09-12T02:49:24.891Z,0
2017-09-12T02:50:27.621Z,0
2017-09-12T02:51:30.016Z,0
2017-09-12T02:52:32.408Z,0
2017-09-12T02:53:35.493Z,0
2017-09-12T02:54:37.896Z,0
2017-09-12T02:55:40.287Z,0
2017-09-12T02:56:42.670Z,0
2017-09-12T02:57:45.068Z,0
2017-09-12T02:58:47.460Z,0
2017-09-12T02:59:49.848Z,0
2017-09-12T03:00:52.245Z,0
2017-09-12T03:01:54.631Z,0
2017-09-12T03:02:57.014Z,0
2017-09-12T03:03:59.417Z,0
2017-09-12T03:05:02.142Z,0
2017-09-12T03:06:04.534Z,0
2017-09-12T03:07:06.924Z,0
2017-09-12T03:08:09.663Z,0
2017-09-12T03:09:12.066Z,0
2017-09-12T03:10:14.455Z,0
2017-09-12T03:11:16.843Z,0
2017-09-12T03:12:19.240Z,0
2017-09-12T03:13:21.635Z,0
2017-09-12T03:14:24.027Z,0
2017-09-12T03:15:26.424Z,0
2017-09-12T03:16:28.810Z,0
2017-09-12T03:17:31.203Z,0
2017-09-12T03:18:33.601Z,0
2017-09-12T03:19:35.995Z,0
2017-09-12T03:20:38.381Z,0
2017-09-12T03:21:40.777Z,0
2017-09-12T03:22:43.168Z,0
2017-09-12T03:23:45.561Z,0
2017-09-12T03:24:47.957Z,0
2017-09-12T03:25:50.350Z,0
2017-09-12T03:26:52.737Z,0
2017-09-12T03:27:55.141Z,0
2017-09-12T03:28:57.528Z,0
2017-09-12T03:29:59.932Z,0
2017-09-12T03:31:02.320Z,0
2017-09-12T03:32:05.052Z,0
2017-09-12T03:33:07.450Z,0
2017-09-12T03:34:09.842Z,0
2017-09-12T03:35:12.228Z,0
2017-09-12T03:36:14.621Z,0
2017-09-12T03:37:17.010Z,0
2017-09-12T03:38:19.404Z,0
2017-09-12T03:39:21.793Z,0
2017-09-12T03:40:24.191Z,0
2017-09-12T03:41:26.581Z,0
2017-09-12T03:42:28.974Z,0
2017-09-12T03:43:31.707Z,0
2017-09-12T03:44:34.099Z,0
2017-09-12T03:45:36.836Z,0
2017-09-12T03:46:39.226Z,0
2017-09-12T03:47:41.618Z,0
2017-09-12T03:48:44.010Z,0
2017-09-12T03:49:46.409Z,0
2017-09-12T03:50:49.141Z,0
2017-09-12T03:51:51.544Z,0
2017-09-12T03:52:53.941Z,0
2017-09-12T03:53:56.320Z,0
2017-09-12T03:54:58.741Z,0
2017-09-12T03:56:01.113Z,0
2017-09-12T03:57:03.510Z,0
2017-09-12T03:58:06.244Z,0
2017-09-12T03:59:08.637Z,0
2017-09-12T04:00:11.026Z,0
2017-09-12T04:01:13.426Z,0
2017-09-12T04:02:15.821Z,0
2017-09-12T04:03:18.209Z,0
2017-09-12T04:04:20.609Z,0
2017-09-12T04:05:23.002Z,0
2017-09-12T04:06:25.734Z,0
2017-09-12T04:07:28.122Z,0
2017-09-12T04:08:30.521Z,0
2017-09-12T04:09:32.914Z,0
2017-09-12T04:10:35.311Z,0
2017-09-12T04:11:37.699Z,0
2017-09-12T04:12:40.101Z,0
2017-09-12T04:13:42.830Z,0
2017-09-12T04:14:45.222Z,0
2017-09-12T04:15:47.605Z,4
2017-09-12T04:16:49.997Z,4
2017-09-12T04:17:52.396Z,4
2017-09-12T04:18:55.121Z,4
2017-09-12T04:19:57.517Z,8
2017-09-12T04:20:59.907Z,4
2017-09-12T04:22:02.305Z,8
2017-09-12T04:23:04.699Z,12
2017-09-12T04:24:07.096Z,12
2017-09-12T04:25:09.480Z,12
2017-09-12T04:26:11.869Z,20
2017-09-12T04:27:14.278Z,28
2017-09-12T04:28:16.667Z,32
2017-09-12T04:29:19.059Z,36
2017-09-12T04:30:21.441Z,40
2017-09-12T04:31:23.834Z,48
2017-09-12T04:32:26.230Z,52
2017-09-12T04:33:28.627Z,40
2017-09-12T04:34:31.014Z,52
2017-09-12T04:35:33.405Z,72
2017-09-12T04:36:35.797Z,100
2017-09-12T04:37:38.191Z,116
2017-09-12T04:38:40.587Z,116
2017-09-12T04:39:43.323Z,120
2017-09-12T04:40:45.718Z,132
2017-09-12T04:41:48.447Z,140
2017-09-12T04:42:51.186Z,132
2017-09-12T04:43:53.585Z,140
2017-09-12T04:44:55.979Z,176
2017-09-12T04:45:58.710Z,208
2017-09-12T04:47:01.105Z,228
2017-09-12T04:48:03.493Z,248
2017-09-12T04:49:05.901Z,276
2017-09-12T04:50:08.285Z,308
2017-09-12T04:51:11.040Z,324
2017-09-12T04:52:13.767Z,356
2017-09-12T04:53:16.162Z,380
2017-09-12T04:54:18.562Z,412
2017-09-12T04:55:20.953Z,448
2017-09-12T04:56:23.355Z,488
2017-09-12T04:57:25.751Z,516
2017-09-12T04:58:28.146Z,544
2017-09-12T04:59:30.566Z,548
2017-09-12T05:00:32.950Z,572
2017-09-12T05:01:35.353Z,620
2017-09-12T05:02:38.423Z,600
2017-09-12T05:03:40.844Z,560
2017-09-12T05:04:43.228Z,644
2017-09-12T05:05:45.628Z,732
2017-09-12T05:06:48.017Z,776
2017-09-12T05:07:50.759Z,804
2017-09-12T05:08:53.159Z,876
2017-09-12T05:09:55.555Z,928
2017-09-12T05:10:57.953Z,932
2017-09-12T05:12:00.340Z,880
2017-09-12T05:13:02.749Z,952
2017-09-12T05:14:05.148Z,1008
2017-09-12T05:15:07.540Z,944
2017-09-12T05:16:09.935Z,944
2017-09-12T05:17:12.334Z,944
2017-09-12T05:18:14.732Z,980
2017-09-12T05:19:17.128Z,964
2017-09-12T05:20:19.884Z,760
2017-09-12T05:21:22.274Z,716
2017-09-12T05:22:24.679Z,732
2017-09-12T05:23:27.074Z,728
2017-09-12T05:24:29.461Z,664
2017-09-12T05:25:31.857Z,716
2017-09-12T05:26:34.251Z,752
2017-09-12T05:27:36.651Z,756
2017-09-12T05:28:39.053Z,664
2017-09-12T05:29:41.444Z,864
2017-09-12T05:30:43.838Z,992
2017-09-12T05:31:46.258Z,960
2017-09-12T05:32:48.637Z,812
2017-09-12T05:33:51.033Z,844
2017-09-12T05:34:53.766Z,948
2017-09-12T05:35:56.171Z,1080
2017-09-12T05:36:58.592Z,1000
2017-09-12T05:38:00.998Z,1032
2017-09-12T05:39:03.401Z,908
2017-09-12T05:40:05.802Z,1156
2017-09-12T05:41:08.183Z,1576
2017-09-12T05:42:10.593Z,1864
2017-09-12T05:43:12.979Z,2020
2017-09-12T05:44:15.380Z,2336
2017-09-12T05:45:17.774Z,2804
2017-09-12T05:46:20.163Z,2932
2017-09-12T05:47:22.556Z,2936
2017-09-12T05:48:24.975Z,3040
2017-09-12T05:49:27.357Z,3004
2017-09-12T05:50:29.763Z,3292
2017-09-12T05:51:32.160Z,3156
2017-09-12T05:52:34.557Z,2568
2017-09-12T05:53:36.955Z,2496
2017-09-12T05:54:39.359Z,2456
2017-09-12T05:55:41.751Z,2380
2017-09-12T05:56:44.167Z,3112
2017-09-12T05:57:46.898Z,3268
2017-09-12T05:58:49.293Z,3304
2017-09-12T05:59:51.689Z,3016
2017-09-12T06:00:54.085Z,2736
2017-09-12T06:01:56.479Z,3380
2017-09-12T06:02:58.884Z,4216
2017-09-12T06:04:01.282Z,4652
2017-09-12T06:05:04.026Z,5876
2017-09-12T06:06:06.425Z,7480
2017-09-12T06:07:08.835Z,8292
2017-09-12T06:08:11.233Z,8920
2017-09-12T06:09:13.631Z,8816
2017-09-12T06:10:16.020Z,9084
2017-09-12T06:11:18.433Z,8792
2017-09-12T06:12:20.822Z,8472
2017-09-12T06:13:23.223Z,9376
2017-09-12T06:14:25.612Z,9812
2017-09-12T06:15:28.014Z,9468
2017-09-12T06:16:30.406Z,9820
2017-09-12T06:17:32.807Z,9892
2017-09-12T06:18:35.206Z,9892
2017-09-12T06:19:37.937Z,10128
2017-09-12T06:20:40.332Z,10612
2017-09-12T06:21:42.731Z,11068
2017-09-12T06:22:45.124Z,10840
2017-09-12T06:23:47.516Z,10844
2017-09-12T06:24:49.910Z,10872
2017-09-12T06:25:52.312Z,10620
2017-09-12T06:26:54.708Z,9256
2017-09-12T06:27:57.108Z,8144
2017-09-12T06:28:59.492Z,8320
2017-09-12T06:30:01.897Z,9496
2017-09-12T06:31:04.642Z,10028
2017-09-12T06:32:07.044Z,9108
2017-09-12T06:33:09.443Z,6648
2017-09-12T06:34:11.850Z,6040
2017-09-12T06:35:14.241Z,6440
2017-09-12T06:36:16.659Z,7180
2017-09-12T06:37:19.047Z,8160
2017-09-12T06:38:21.452Z,9696
2017-09-12T06:39:23.846Z,10228
2017-09-12T06:40:26.239Z,10688
2017-09-12T06:41:28.637Z,10600
2017-09-12T06:42:31.038Z,10300
2017-09-12T06:43:33.437Z,9768
2017-09-12T06:44:35.831Z,9256
2017-09-12T06:45:38.224Z,8568
2017-09-12T06:46:40.627Z,8584
2017-09-12T06:47:43.023Z,8668
2017-09-12T06:48:45.759Z,9080
2017-09-12T06:49:48.165Z,9288
2017-09-12T06:50:50.565Z,9956
2017-09-12T06:51:52.964Z,11244
2017-09-12T06:52:55.370Z,11736
2017-09-12T06:53:57.759Z,11864
2017-09-12T06:55:00.158Z,11900
2017-09-12T06:56:02.553Z,11804
2017-09-12T06:57:05.150Z,11732
2017-09-12T06:58:07.570Z,11388
2017-09-12T06:59:09.941Z,10880
2017-09-12T07:00:12.341Z,10920
2017-09-12T07:01:14.738Z,11168
2017-09-12T07:02:17.132Z,11240
2017-09-12T07:03:19.522Z,11432
2017-09-12T07:04:21.923Z,11512
2017-09-12T07:05:24.312Z,11996
2017-09-12T07:06:26.708Z,12332
2017-09-12T07:07:29.108Z,12372
2017-09-12T07:08:31.507Z,11828
2017-09-12T07:09:33.902Z,10884
2017-09-12T07:10:36.300Z,10236
2017-09-12T07:11:39.024Z,10520
2017-09-12T07:12:41.763Z,10944
2017-09-12T07:13:44.162Z,11100
2017-09-12T07:14:46.559Z,11200
2017-09-12T07:15:48.958Z,11064
2017-09-12T07:16:51.362Z,11184
2017-09-12T07:17:53.756Z,11904
2017-09-12T07:18:56.506Z,12480
2017-09-12T07:19:58.894Z,12524
2017-09-12T07:21:01.633Z,12124
2017-09-12T07:22:04.033Z,11408
2017-09-12T07:23:06.426Z,10772
2017-09-12T07:24:08.824Z,10500
2017-09-12T07:25:11.581Z,10148
2017-09-12T07:26:13.973Z,10188
2017-09-12T07:27:16.371Z,10088
2017-09-12T07:28:18.766Z,9860
2017-09-12T07:29:21.164Z,9848
2017-09-12T07:30:23.572Z,8512
2017-09-12T07:31:25.968Z,7732
2017-09-12T07:32:28.368Z,7768
2017-09-12T07:33:30.762Z,8680
2017-09-12T07:34:33.171Z,8600
2017-09-12T07:35:35.566Z,7648
2017-09-12T07:36:37.970Z,7916
2017-09-12T07:37:40.354Z,8940
2017-09-12T07:38:42.752Z,10272
2017-09-12T07:39:45.152Z,12228
2017-09-12T07:40:47.903Z,14356
2017-09-12T07:41:50.297Z,15724
2017-09-12T07:42:52.703Z,15652
2017-09-12T07:43:55.095Z,15008
2017-09-12T07:44:57.848Z,14224
2017-09-12T07:46:00.253Z,13264
2017-09-12T07:47:02.639Z,13608
2017-09-12T07:48:05.039Z,13468
2017-09-12T07:49:07.437Z,13444
2017-09-12T07:50:09.829Z,13536
2017-09-12T07:51:12.230Z,13688
2017-09-12T07:52:14.613Z,13652
2017-09-12T07:53:17.007Z,13788
2017-09-12T07:54:19.410Z,14136
2017-09-12T07:55:21.802Z,14296
2017-09-12T07:56:24.555Z,15236
2017-09-12T07:57:26.955Z,15728
2017-09-12T07:58:29.350Z,16916
2017-09-12T07:59:31.756Z,16400
2017-09-12T08:00:34.161Z,15244
2017-09-12T08:01:36.556Z,14084
2017-09-12T08:02:38.953Z,10772
2017-09-12T08:03:41.353Z,8660
2017-09-12T08:04:44.088Z,8392
2017-09-12T08:05:46.486Z,8800
2017-09-12T08:06:48.886Z,9292
2017-09-12T08:07:51.288Z,10188
2017-09-12T08:08:53.687Z,11868
2017-09-12T08:09:56.089Z,13872
2017-09-12T08:10:58.471Z,15040
2017-09-12T08:12:00.871Z,17364
2017-09-12T08:13:03.277Z,17432
2017-09-12T08:14:05.667Z,17512
2017-09-12T08:15:08.064Z,17232
2017-09-12T08:16:10.456Z,14544
2017-09-12T08:17:12.846Z,14744
2017-09-12T08:18:15.252Z,13944
2017-09-12T08:19:17.643Z,11808
2017-09-12T08:20:20.048Z,9756
2017-09-12T08:21:22.453Z,9376
2017-09-12T08:22:24.842Z,9084
2017-09-12T08:23:27.235Z,13716
2017-09-12T08:24:29.649Z,16528
2017-09-12T08:25:32.034Z,21536
2017-09-12T08:26:34.433Z,25408
2017-09-12T08:27:36.839Z,32320
2017-09-12T08:28:39.242Z,27072
2017-09-12T08:29:41.638Z,20672
2017-09-12T08:30:44.036Z,21216
2017-09-12T08:31:46.432Z,23328
2017-09-12T08:32:48.828Z,24640
2017-09-12T08:33:51.220Z,27328
2017-09-12T08:34:53.635Z,31296
2017-09-12T08:35:56.382Z,36544
2017-09-12T08:36:58.781Z,40544
2017-09-12T08:38:01.191Z,36704
2017-09-12T08:39:03.586Z,31872
2017-09-12T08:40:05.983Z,26752
2017-09-12T08:41:08.382Z,21344
2017-09-12T08:42:11.111Z,15952
2017-09-12T08:43:13.511Z,13096
2017-09-12T08:44:15.913Z,13396
2017-09-12T08:45:18.328Z,14600
2017-09-12T08:46:20.725Z,16380
2017-09-12T08:47:23.121Z,17344
2017-09-12T08:48:25.523Z,19168
2017-09-12T08:49:27.929Z,23328
2017-09-12T08:50:30.333Z,26144
2017-09-12T08:51:32.732Z,26112
2017-09-12T08:52:35.129Z,26944
2017-09-12T08:53:37.527Z,26496
2017-09-12T08:54:39.926Z,24896
2017-09-12T08:55:42.325Z,23360
2017-09-12T08:56:44.720Z,22048
2017-09-12T08:57:47.123Z,21920
2017-09-12T08:58:49.517Z,22720
2017-09-12T08:59:51.918Z,22848
2017-09-12T09:00:54.310Z,20864
2017-09-12T09:01:56.714Z,18452
2017-09-12T09:02:59.111Z,20672
2017-09-12T09:04:01.509Z,19392
2017-09-12T09:05:03.925Z,18880
2017-09-12T09:06:06.678Z,20224
2017-09-12T09:07:09.073Z,16736
2017-09-12T09:08:11.477Z,16680
2017-09-12T09:09:13.877Z,17372
2017-09-12T09:10:16.275Z,20128
2017-09-12T09:11:18.676Z,22624
2017-09-12T09:12:21.069Z,25632
2017-09-12T09:13:23.806Z,27648
2017-09-12T09:14:26.545Z,31680
2017-09-12T09:15:28.942Z,21984
2017-09-12T09:16:31.331Z,18752
2017-09-12T09:17:33.740Z,12020
2017-09-12T09:18:36.139Z,14504
2017-09-12T09:19:38.888Z,19168
2017-09-12T09:20:41.290Z,13536
2017-09-12T09:21:43.686Z,16352
2017-09-12T09:22:46.086Z,16428
2017-09-12T09:23:48.485Z,9668
2017-09-12T09:24:51.213Z,9600
2017-09-12T09:25:53.608Z,6996
2017-09-12T09:26:56.012Z,8856
2017-09-12T09:27:58.747Z,10088
2017-09-12T09:29:01.148Z,14500
2017-09-12T09:30:03.550Z,10768
2017-09-12T09:31:05.952Z,11944
2017-09-12T09:32:08.342Z,14124
2017-09-12T09:33:10.740Z,14940
2017-09-12T09:34:13.145Z,15092
2017-09-12T09:35:15.547Z,17616
2017-09-12T09:36:17.951Z,15440
2017-09-12T09:37:20.347Z,11920
2017-09-12T09:38:23.079Z,15732
2017-09-12T09:39:25.826Z,12144
2017-09-12T09:40:28.226Z,14756
2017-09-12T09:41:30.611Z,17188
2017-09-12T09:42:33.016Z,21312
2017-09-12T09:43:35.407Z,23008
2017-09-12T09:44:37.803Z,26144
2017-09-12T09:45:40.200Z,27936
2017-09-12T09:46:42.598Z,47328
2017-09-12T09:47:44.996Z,102304
2017-09-12T09:48:47.399Z,109568
2017-09-12T09:49:49.794Z,92032
2017-09-12T09:50:52.188Z,42784
2017-09-12T09:51:54.920Z,101600
2017-09-12T09:52:57.326Z,33216
2017-09-12T09:53:59.725Z,44480
2017-09-12T09:55:02.124Z,48672
2017-09-12T09:56:04.518Z,39648
2017-09-12T09:57:06.914Z,50880
2017-09-12T09:58:09.321Z,47360
2017-09-12T09:59:11.723Z,37280
2017-09-12T10:00:14.118Z,22240
2017-09-12T10:01:16.849Z,27328
2017-09-12T10:02:19.256Z,44320
2017-09-12T10:03:21.655Z,85280
2017-09-12T10:04:24.047Z,92544
2017-09-12T10:05:26.457Z,103552
2017-09-12T10:06:28.858Z,55648
2017-09-12T10:07:31.251Z,74912
2017-09-12T10:08:33.657Z,83680
2017-09-12T10:09:36.064Z,55264
2017-09-12T10:10:38.464Z,116224
2017-09-12T10:11:40.867Z,119488
2017-09-12T10:12:43.260Z,136352
2017-09-12T10:13:45.659Z,105024
2017-09-12T10:14:48.072Z,133440
2017-09-12T10:15:50.460Z,130176
2017-09-12T10:16:52.874Z,117408
2017-09-12T10:17:55.275Z,31072
2017-09-12T10:18:58.013Z,47200
2017-09-12T10:20:00.756Z,29856
2017-09-12T10:21:03.163Z,25568
2017-09-12T10:22:05.558Z,73248
2017-09-12T10:23:07.970Z,142624
2017-09-12T10:24:10.366Z,43200
2017-09-12T10:25:12.771Z,158464
2017-09-12T10:26:15.172Z,66784
2017-09-12T10:27:17.571Z,84800
2017-09-12T10:28:19.977Z,38944
2017-09-12T10:29:22.381Z,28864
2017-09-12T10:30:24.785Z,29536
2017-09-12T10:31:27.194Z,39008
2017-09-12T10:32:29.589Z,34688
2017-09-12T10:33:31.992Z,48992
2017-09-12T10:34:34.396Z,39104
2017-09-12T10:35:36.794Z,18560
2017-09-12T10:36:39.199Z,9792
2017-09-12T10:37:41.595Z,7324
2017-09-12T10:38:43.996Z,8136
2017-09-12T10:39:46.405Z,10512
2017-09-12T10:40:48.802Z,11748
2017-09-12T10:41:51.210Z,13464
2017-09-12T10:42:53.661Z,13044
2017-09-12T10:43:56.075Z,11368
2017-09-12T10:44:58.470Z,12080
2017-09-12T10:46:00.879Z,12912
2017-09-12T10:47:03.281Z,17276
2017-09-12T10:48:05.690Z,80096
2017-09-12T10:49:08.097Z,32832
2017-09-12T10:50:10.483Z,30624
2017-09-12T10:51:13.228Z,22336
2017-09-12T10:52:15.630Z,13824
2017-09-12T10:53:18.032Z,11904
2017-09-12T10:54:20.777Z,10804
2017-09-12T10:55:23.173Z,10392
2017-09-12T10:56:25.605Z,8960
2017-09-12T10:57:27.978Z,11844
2017-09-12T10:58:30.382Z,12296
2017-09-12T10:59:32.777Z,10628
2017-09-12T11:00:35.175Z,12548
2017-09-12T11:01:37.574Z,20128
2017-09-12T11:02:40.324Z,33472
2017-09-12T11:03:42.725Z,64352
2017-09-12T11:04:45.120Z,40992
2017-09-12T11:05:47.879Z,57344
2017-09-12T11:06:50.276Z,47552
2017-09-12T11:07:52.679Z,150976
2017-09-12T11:08:55.084Z,140960
2017-09-12T11:09:57.480Z,102944
2017-09-12T11:10:59.885Z,104160
2017-09-12T11:12:02.283Z,59776
2017-09-12T11:13:04.686Z,147168
2017-09-12T11:14:07.076Z,59008
2017-09-12T11:15:09.483Z,51744
2017-09-12T11:16:11.873Z,33504
2017-09-12T11:17:14.280Z,32160
2017-09-12T11:18:16.685Z,33760
2017-09-12T11:19:19.086Z,125856
2017-09-12T11:20:21.506Z,158016
2017-09-12T11:21:23.927Z,139584
2017-09-12T11:22:26.340Z,114144
2017-09-12T11:23:28.772Z,17404
2017-09-12T11:24:31.181Z,13020
2017-09-12T11:25:33.586Z,10024
2017-09-12T11:26:36.001Z,8116
2017-09-12T11:27:38.418Z,7068
2017-09-12T11:28:40.828Z,6364
2017-09-12T11:29:43.243Z,6024
2017-09-12T11:30:45.665Z,6388
2017-09-12T11:31:48.073Z,7516
2017-09-12T11:32:50.505Z,10296
2017-09-12T11:33:52.932Z,14092
2017-09-12T11:34:55.346Z,15676
2017-09-12T11:35:57.754Z,19264
2017-09-12T11:37:00.166Z,39520
2017-09-12T11:38:02.570Z,29344
2017-09-12T11:39:04.995Z,20928
2017-09-12T11:40:07.397Z,14424
2017-09-12T11:41:09.805Z,10508
2017-09-12T11:42:12.201Z,8876
2017-09-12T11:43:14.603Z,8880
2017-09-12T11:44:17.008Z,10160
2017-09-12T11:45:19.413Z,12856
2017-09-12T11:46:21.821Z,15644
2017-09-12T11:47:24.609Z,21408
2017-09-12T11:48:27.012Z,28160
2017-09-12T11:49:29.417Z,27392
2017-09-12T11:50:31.816Z,31008
2017-09-12T11:51:34.213Z,33472
2017-09-12T11:52:36.958Z,60352
2017-09-12T11:53:39.357Z,55456
2017-09-12T11:54:41.778Z,35136
2017-09-12T11:55:44.181Z,29088
2017-09-12T11:56:46.577Z,24416
2017-09-12T11:57:48.983Z,21248
2017-09-12T11:58:51.419Z,19264
2017-09-12T11:59:53.792Z,17280
2017-09-12T12:00:56.188Z,16412
2017-09-12T12:01:58.602Z,16876
2017-09-12T12:03:01.007Z,19104
2017-09-12T12:04:03.406Z,22880
2017-09-12T12:05:05.813Z,28864
2017-09-12T12:06:08.209Z,44544
2017-09-12T12:07:10.614Z,99840
2017-09-12T12:08:13.014Z,51776
2017-09-12T12:09:15.407Z,46368
2017-09-12T12:10:17.801Z,42816
2017-09-12T12:11:20.207Z,43648
2017-09-12T12:12:22.605Z,34400
2017-09-12T12:13:25.008Z,33344
2017-09-12T12:14:27.408Z,35872
2017-09-12T12:15:30.174Z,47680
2017-09-12T12:16:32.581Z,53280
2017-09-12T12:17:34.980Z,46816
2017-09-12T12:18:37.382Z,71744
2017-09-12T12:19:39.777Z,118528
2017-09-12T12:20:42.526Z,116896
2017-09-12T12:21:44.923Z,31552
2017-09-12T12:22:47.325Z,106112
2017-09-12T12:23:49.722Z,103840
2017-09-12T12:24:52.463Z,102048
2017-09-12T12:25:54.859Z,79456
2017-09-12T12:26:57.266Z,41696
2017-09-12T12:27:59.661Z,45312
2017-09-12T12:29:02.068Z,21920
2017-09-12T12:30:04.470Z,18056
2017-09-12T12:31:06.874Z,15420
2017-09-12T12:32:09.280Z,12200
2017-09-12T12:33:11.682Z,9584
2017-09-12T12:34:14.091Z,9572
2017-09-12T12:35:16.819Z,11680
2017-09-12T12:36:19.231Z,17716
2017-09-12T12:37:21.633Z,24192
2017-09-12T12:38:24.372Z,52000
2017-09-12T12:39:26.776Z,48416
2017-09-12T12:40:29.178Z,117632
2017-09-12T12:41:31.582Z,116640
2017-09-12T12:42:33.994Z,111040
2017-09-12T12:43:36.392Z,105792
2017-09-12T12:44:38.801Z,106112
2017-09-12T12:45:41.194Z,104352
2017-09-12T12:46:43.605Z,105280
2017-09-12T12:47:46.006Z,99776
2017-09-12T12:48:48.411Z,25440
2017-09-12T12:49:50.813Z,19680
2017-09-12T12:50:53.218Z,46464
2017-09-12T12:51:55.624Z,41568
2017-09-12T12:52:58.034Z,18288
2017-09-12T12:54:00.803Z,11376
2017-09-12T12:55:03.210Z,7948
2017-09-12T12:56:05.611Z,6080
2017-09-12T12:57:08.021Z,4420
2017-09-12T12:58:10.422Z,4752
2017-09-12T12:59:13.166Z,4428
2017-09-12T13:00:15.572Z,4000
2017-09-12T13:01:17.971Z,3452
2017-09-12T13:02:20.389Z,3312
2017-09-12T13:03:22.788Z,3944
2017-09-12T13:04:25.199Z,4372
2017-09-12T13:05:27.600Z,4568
2017-09-12T13:06:30.004Z,4812
2017-09-12T13:07:32.413Z,5336
2017-09-12T13:08:34.821Z,6072
2017-09-12T13:09:37.220Z,6996
2017-09-12T13:10:39.622Z,8396
2017-09-12T13:11:42.023Z,10524
2017-09-12T13:12:44.459Z,13204
2017-09-12T13:13:46.862Z,41696
2017-09-12T13:14:49.278Z,110432
2017-09-12T13:15:51.671Z,78464
2017-09-12T13:16:54.080Z,83008
2017-09-12T13:17:56.489Z,76640
2017-09-12T13:18:58.893Z,37344
2017-09-12T13:20:01.292Z,18384
2017-09-12T13:21:03.697Z,33568
2017-09-12T13:22:06.095Z,14100
2017-09-12T13:23:08.505Z,12732
2017-09-12T13:24:11.245Z,12288
2017-09-12T13:25:13.655Z,12012
2017-09-12T13:26:16.055Z,11680
2017-09-12T13:27:18.804Z,11212
2017-09-12T13:28:21.211Z,10700
2017-09-12T13:29:23.605Z,10356
2017-09-12T13:30:26.012Z,11212
2017-09-12T13:31:28.416Z,23232
2017-09-12T13:32:30.813Z,33184
2017-09-12T13:33:33.231Z,32608
2017-09-12T13:34:35.639Z,58016
2017-09-12T13:35:38.038Z,57728
2017-09-12T13:36:40.453Z,59776
2017-09-12T13:37:42.854Z,46816
2017-09-12T13:38:45.263Z,56256
2017-09-12T13:39:47.668Z,49408
2017-09-12T13:40:50.079Z,36096
2017-09-12T13:41:52.484Z,54720
2017-09-12T13:42:54.900Z,57184
2017-09-12T13:43:57.296Z,52800
2017-09-12T13:44:59.707Z,44096
2017-09-12T13:46:02.109Z,42784
2017-09-12T13:47:04.515Z,35168
2017-09-12T13:48:06.923Z,49568
2017-09-12T13:49:09.336Z,49504
2017-09-12T13:50:11.747Z,37984
2017-09-12T13:51:14.157Z,35488
2017-09-12T13:52:16.566Z,37600
2017-09-12T13:53:18.983Z,49056
2017-09-12T13:54:21.389Z,49216
2017-09-12T13:55:23.795Z,43840
2017-09-12T13:56:26.200Z,34720
2017-09-12T13:57:28.601Z,51040
2017-09-12T13:58:31.006Z,54880
2017-09-12T13:59:33.411Z,38304
2017-09-12T14:00:35.809Z,42272
2017-09-12T14:01:38.219Z,52960
2017-09-12T14:02:40.637Z,54272
2017-09-12T14:03:43.376Z,60864
2017-09-12T14:04:45.786Z,58016
2017-09-12T14:05:48.196Z,55968